sensor_id;sensor_type;location;lat;lon;timestamp;pressure;altitude;pressure_sealevel;temperature;humidity
78573;BME280;67862;0.000;0.000;2024-02-28T00:00:36;99040.84;;;22.88;57.80
78573;BME280;67862;0.000;0.000;2024-02-28T00:03:02;99036.47;;;22.87;57.79
78573;BME280;67862;0.000;0.000;2024-02-28T00:05:27;99040.84;;;22.88;57.94
78573;BME280;67862;0.000;0.000;2024-02-28T00:07:52;99038.91;;;22.89;58.06
78573;BME280;67862;0.000;0.000;2024-02-28T00:10:18;99038.13;;;22.88;57.87
78573;BME280;67862;0.000;0.000;2024-02-28T00:12:43;99035.38;;;22.88;58.07
78573;BME280;67862;0.000;0.000;2024-02-28T00:15:08;99038.13;;;22.88;57.68
78573;BME280;67862;0.000;0.000;2024-02-28T00:17:38;99035.38;;;22.88;57.93
78573;BME280;67862;0.000;0.000;2024-02-28T00:20:08;99034.25;;;22.89;57.83
78573;BME280;67862;0.000;0.000;2024-02-28T00:22:35;99034.25;;;22.89;57.85
78573;BME280;67862;0.000;0.000;2024-02-28T00:25:00;99029.09;;;22.88;57.35
78573;BME280;67862;0.000;0.000;2024-02-28T00:27:26;99035.38;;;22.88;57.92
78573;BME280;67862;0.000;0.000;2024-02-28T00:29:51;99032.63;;;22.88;57.65
78573;BME280;67862;0.000;0.000;2024-02-28T00:32:17;99033.44;;;22.89;57.61
78573;BME280;67862;0.000;0.000;2024-02-28T00:34:42;99038.13;;;22.88;57.63
78573;BME280;67862;0.000;0.000;2024-02-28T00:37:08;99042.78;;;22.88;57.77
78573;BME280;67862;0.000;0.000;2024-02-28T00:39:33;99037.31;;;22.88;57.80
78573;BME280;67862;0.000;0.000;2024-02-28T00:42:01;99037.31;;;22.88;58.05
78573;BME280;67862;0.000;0.000;2024-02-28T00:44:27;99040.03;;;22.88;57.86
78573;BME280;67862;0.000;0.000;2024-02-28T00:46:52;99040.03;;;22.88;57.93
78573;BME280;67862;0.000;0.000;2024-02-28T00:49:17;99042.78;;;22.88;58.18
78573;BME280;67862;0.000;0.000;2024-02-28T00:51:43;99036.19;;;22.89;57.82
78573;BME280;67862;0.000;0.000;2024-02-28T00:54:08;99046.00;;;22.90;57.72
78573;BME280;67862;0.000;0.000;2024-02-28T00:56:34;99050.38;;;22.91;57.92
78573;BME280;67862;0.000;0.000;2024-02-28T00:58:59;99048.44;;;22.91;57.83
78573;BME280;67862;0.000;0.000;2024-02-28T01:04:36;99047.63;;;22.91;58.10
78573;BME280;67862;0.000;0.000;2024-02-28T01:07:01;99046.81;;;22.90;58.17
78573;BME280;67862;0.000;0.000;2024-02-28T01:09:26;99049.56;;;22.90;57.90
78573;BME280;67862;0.000;0.000;2024-02-28T01:11:52;99046.00;;;22.90;58.16
78573;BME280;67862;0.000;0.000;2024-02-28T01:14:18;99048.44;;;22.91;57.82
78573;BME280;67862;0.000;0.000;2024-02-28T01:16:43;99052.31;;;22.90;58.05
78573;BME280;67862;0.000;0.000;2024-02-28T01:19:08;99047.63;;;22.91;57.78
78573;BME280;67862;0.000;0.000;2024-02-28T01:21:33;99051.50;;;22.90;57.59
78573;BME280;67862;0.000;0.000;2024-02-28T01:23:59;99046.81;;;22.90;57.99
78573;BME280;67862;0.000;0.000;2024-02-28T01:26:24;99049.88;;;22.89;58.13
78573;BME280;67862;0.000;0.000;2024-02-28T01:28:49;99053.72;;;22.88;58.06
78573;BME280;67862;0.000;0.000;2024-02-28T01:31:15;99049.56;;;22.90;57.76
78573;BME280;67862;0.000;0.000;2024-02-28T01:33:40;99056.66;;;22.91;58.04
78573;BME280;67862;0.000;0.000;2024-02-28T01:36:08;99056.66;;;22.91;58.14
78573;BME280;67862;0.000;0.000;2024-02-28T01:38:34;99062.94;;;22.92;58.02
78573;BME280;67862;0.000;0.000;2024-02-28T01:40:59;99056.66;;;22.91;58.20
78573;BME280;67862;0.000;0.000;2024-02-28T01:43:24;99058.28;;;22.92;57.91
78573;BME280;67862;0.000;0.000;2024-02-28T01:45:50;99062.63;;;22.93;58.33
78573;BME280;67862;0.000;0.000;2024-02-28T01:48:15;99061.00;;;22.92;57.95
78573;BME280;67862;0.000;0.000;2024-02-28T01:50:41;99058.59;;;22.91;58.40
78573;BME280;67862;0.000;0.000;2024-02-28T01:53:06;99066.78;;;22.91;57.78
78573;BME280;67862;0.000;0.000;2024-02-28T01:55:34;99064.88;;;22.91;58.04
78573;BME280;67862;0.000;0.000;2024-02-28T01:57:59;99060.19;;;22.92;58.27
78573;BME280;67862;0.000;0.000;2024-02-28T02:00:25;99064.88;;;22.91;58.06
78573;BME280;67862;0.000;0.000;2024-02-28T02:02:53;99061.31;;;22.91;58.16
78573;BME280;67862;0.000;0.000;2024-02-28T02:05:18;99067.91;;;22.90;57.81
78573;BME280;67862;0.000;0.000;2024-02-28T02:07:46;99071.78;;;22.89;57.92
78573;BME280;67862;0.000;0.000;2024-02-28T02:10:12;99062.75;;;22.88;57.83
78573;BME280;67862;0.000;0.000;2024-02-28T02:12:38;99061.31;;;22.91;57.89
78573;BME280;67862;0.000;0.000;2024-02-28T02:15:03;99073.09;;;22.91;57.70
78573;BME280;67862;0.000;0.000;2024-02-28T02:17:29;99068.72;;;22.90;58.12
78573;BME280;67862;0.000;0.000;2024-02-28T02:19:54;99063.25;;;22.90;57.91
78573;BME280;67862;0.000;0.000;2024-02-28T02:22:19;99063.25;;;22.90;57.74
78573;BME280;67862;0.000;0.000;2024-02-28T02:24:45;99063.25;;;22.90;57.97
78573;BME280;67862;0.000;0.000;2024-02-28T02:27:10;99071.47;;;22.90;58.10
78573;BME280;67862;0.000;0.000;2024-02-28T02:29:36;99079.66;;;22.90;58.08
78573;BME280;67862;0.000;0.000;2024-02-28T02:32:01;99073.69;;;22.88;58.16
78573;BME280;67862;0.000;0.000;2024-02-28T02:34:26;99081.09;;;22.88;58.40
78573;BME280;67862;0.000;0.000;2024-02-28T02:36:52;99076.13;;;22.90;58.22
78573;BME280;67862;0.000;0.000;2024-02-28T02:39:17;99068.72;;;22.90;57.96
78573;BME280;67862;0.000;0.000;2024-02-28T02:41:42;99079.66;;;22.90;58.18
78573;BME280;67862;0.000;0.000;2024-02-28T02:44:08;99082.41;;;22.90;57.87
78573;BME280;67862;0.000;0.000;2024-02-28T02:46:33;99083.22;;;22.91;58.26
78573;BME280;67862;0.000;0.000;2024-02-28T02:48:59;99081.91;;;22.88;57.94
78573;BME280;67862;0.000;0.000;2024-02-28T02:51:24;99082.72;;;22.89;58.02
78573;BME280;67862;0.000;0.000;2024-02-28T02:53:50;99089.00;;;22.89;58.40
78573;BME280;67862;0.000;0.000;2024-02-28T02:56:16;99087.38;;;22.88;58.47
78573;BME280;67862;0.000;0.000;2024-02-28T02:58:41;99084.66;;;22.88;58.67
78573;BME280;67862;0.000;0.000;2024-02-28T03:01:06;99085.72;;;22.87;58.09
78573;BME280;67862;0.000;0.000;2024-02-28T03:03:33;99091.22;;;22.87;58.38
78573;BME280;67862;0.000;0.000;2024-02-28T03:06:03;99092.03;;;22.88;57.80
78573;BME280;67862;0.000;0.000;2024-02-28T03:08:28;99092.03;;;22.88;58.21
78573;BME280;67862;0.000;0.000;2024-02-28T03:10:54;99091.22;;;22.87;57.87
78573;BME280;67862;0.000;0.000;2024-02-28T03:13:19;99092.31;;;22.86;58.06
78573;BME280;67862;0.000;0.000;2024-02-28T03:15:45;99096.69;;;22.87;58.10
78573;BME280;67862;0.000;0.000;2024-02-28T03:18:10;99093.44;;;22.85;58.49
78573;BME280;67862;0.000;0.000;2024-02-28T03:20:35;99100.53;;;22.86;58.40
78573;BME280;67862;0.000;0.000;2024-02-28T03:23:04;99105.19;;;22.85;58.38
78573;BME280;67862;0.000;0.000;2024-02-28T03:25:31;99097.78;;;22.86;57.91
78573;BME280;67862;0.000;0.000;2024-02-28T03:27:56;99099.41;;;22.87;58.22
78573;BME280;67862;0.000;0.000;2024-02-28T03:30:21;99098.59;;;22.87;58.15
78573;BME280;67862;0.000;0.000;2024-02-28T03:32:47;99095.06;;;22.86;58.12
78573;BME280;67862;0.000;0.000;2024-02-28T03:35:12;99109.56;;;22.87;58.10
78573;BME280;67862;0.000;0.000;2024-02-28T03:37:37;99095.88;;;22.87;58.08
78573;BME280;67862;0.000;0.000;2024-02-28T03:40:03;99096.69;;;22.87;58.18
78573;BME280;67862;0.000;0.000;2024-02-28T03:42:28;99095.88;;;22.87;58.15
78573;BME280;67862;0.000;0.000;2024-02-28T03:44:53;99098.59;;;22.87;57.88
78573;BME280;67862;0.000;0.000;2024-02-28T03:47:19;99104.88;;;22.87;58.04
78573;BME280;67862;0.000;0.000;2024-02-28T03:49:44;99103.28;;;22.86;57.66
78573;BME280;67862;0.000;0.000;2024-02-28T03:52:10;99106.00;;;22.86;57.96
78573;BME280;67862;0.000;0.000;2024-02-28T03:54:35;99103.28;;;22.86;57.76
78573;BME280;67862;0.000;0.000;2024-02-28T03:57:01;99107.94;;;22.85;57.64
78573;BME280;67862;0.000;0.000;2024-02-28T03:59:26;99102.47;;;22.85;57.60
78573;BME280;67862;0.000;0.000;2024-02-28T04:01:51;99112.59;;;22.85;57.40
78573;BME280;67862;0.000;0.000;2024-02-28T04:04:17;99105.19;;;22.85;57.70
78573;BME280;67862;0.000;0.000;2024-02-28T04:06:42;99111.47;;;22.86;57.55
78573;BME280;67862;0.000;0.000;2024-02-28T04:09:07;99107.13;;;22.85;57.75
78573;BME280;67862;0.000;0.000;2024-02-28T04:11:33;99112.59;;;22.85;57.26
78573;BME280;67862;0.000;0.000;2024-02-28T04:13:59;99115.34;;;22.85;57.62
78573;BME280;67862;0.000;0.000;2024-02-28T04:16:24;99118.06;;;22.85;57.17
78573;BME280;67862;0.000;0.000;2024-02-28T04:18:49;99122.44;;;22.86;57.60
78573;BME280;67862;0.000;0.000;2024-02-28T04:21:15;99128.22;;;22.84;57.63
78573;BME280;67862;0.000;0.000;2024-02-28T04:23:40;99141.91;;;22.84;57.44
78573;BME280;67862;0.000;0.000;2024-02-28T04:26:07;99136.41;;;22.84;57.82
78573;BME280;67862;0.000;0.000;2024-02-28T04:28:32;99136.41;;;22.84;57.66
78573;BME280;67862;0.000;0.000;2024-02-28T04:30:57;99132.88;;;22.84;57.56
78573;BME280;67862;0.000;0.000;2024-02-28T04:33:23;99138.63;;;22.82;57.85
78573;BME280;67862;0.000;0.000;2024-02-28T04:35:48;99140.84;;;22.80;57.37
78573;BME280;67862;0.000;0.000;2024-02-28T04:38:13;99140.84;;;22.80;57.52
78573;BME280;67862;0.000;0.000;2024-02-28T04:40:39;99138.13;;;22.80;57.78
78573;BME280;67862;0.000;0.000;2024-02-28T04:43:04;99139.22;;;22.79;57.66
78573;BME280;67862;0.000;0.000;2024-02-28T04:45:29;99138.44;;;22.79;57.35
78573;BME280;67862;0.000;0.000;2024-02-28T04:47:55;99136.81;;;22.78;57.68
78573;BME280;67862;0.000;0.000;2024-02-28T04:50:22;99138.69;;;22.77;57.80
78573;BME280;67862;0.000;0.000;2024-02-28T04:52:47;99146.91;;;22.77;57.79
78573;BME280;67862;0.000;0.000;2024-02-28T04:55:12;99144.16;;;22.77;57.64
78573;BME280;67862;0.000;0.000;2024-02-28T04:57:38;99148.84;;;22.77;57.86
78573;BME280;67862;0.000;0.000;2024-02-28T05:00:03;99145.28;;;22.76;57.55
78573;BME280;67862;0.000;0.000;2024-02-28T05:02:29;99160.91;;;22.76;57.88
78573;BME280;67862;0.000;0.000;2024-02-28T05:04:54;99151.88;;;22.75;58.12
78573;BME280;67862;0.000;0.000;2024-02-28T05:07:20;99151.88;;;22.75;57.76
78573;BME280;67862;0.000;0.000;2024-02-28T05:09:45;99142.84;;;22.75;57.98
78573;BME280;67862;0.000;0.000;2024-02-28T05:12:10;99134.13;;;22.73;57.84
78573;BME280;67862;0.000;0.000;2024-02-28T05:14:38;99140.44;;;22.73;58.04
78573;BME280;67862;0.000;0.000;2024-02-28T05:17:04;99130.28;;;22.74;57.87
78573;BME280;67862;0.000;0.000;2024-02-28T05:19:29;99143.97;;;22.74;57.87
78573;BME280;67862;0.000;0.000;2024-02-28T05:21:56;99147.50;;;22.74;58.06
78573;BME280;67862;0.000;0.000;2024-02-28T05:24:21;99154.91;;;22.74;58.47
78573;BME280;67862;0.000;0.000;2024-02-28T05:26:47;99150.25;;;22.74;58.06
78573;BME280;67862;0.000;0.000;2024-02-28T05:29:12;99159.28;;;22.75;58.15
78573;BME280;67862;0.000;0.000;2024-02-28T05:31:37;99169.41;;;22.74;58.00
78573;BME280;67862;0.000;0.000;2024-02-28T05:34:03;99165.88;;;22.74;58.26
78573;BME280;67862;0.000;0.000;2024-02-28T05:36:29;99163.13;;;22.74;58.02
78573;BME280;67862;0.000;0.000;2024-02-28T05:38:55;99168.91;;;22.72;58.14
78573;BME280;67862;0.000;0.000;2024-02-28T05:41:21;99176.31;;;22.72;58.30
78573;BME280;67862;0.000;0.000;2024-02-28T05:43:47;99178.22;;;22.71;57.91
78573;BME280;67862;0.000;0.000;2024-02-28T05:46:13;99180.97;;;22.71;58.03
78573;BME280;67862;0.000;0.000;2024-02-28T05:48:45;99191.91;;;22.71;58.02
78573;BME280;67862;0.000;0.000;2024-02-28T05:51:11;99189.47;;;22.70;57.71
78573;BME280;67862;0.000;0.000;2024-02-28T05:53:36;99186.75;;;22.70;57.76
78573;BME280;67862;0.000;0.000;2024-02-28T05:56:03;99187.03;;;22.68;57.76
78573;BME280;67862;0.000;0.000;2024-02-28T05:58:29;99179.91;;;22.67;57.57
78573;BME280;67862;0.000;0.000;2024-02-28T06:00:54;99190.06;;;22.67;57.76
78573;BME280;67862;0.000;0.000;2024-02-28T06:03:20;99185.03;;;22.74;57.54
78573;BME280;67862;0.000;0.000;2024-02-28T06:05:45;99187.84;;;22.69;57.32
78573;BME280;67862;0.000;0.000;2024-02-28T06:08:11;99190.06;;;22.67;57.43
78573;BME280;67862;0.000;0.000;2024-02-28T06:10:37;99196.13;;;22.64;57.35
78573;BME280;67862;0.000;0.000;2024-02-28T06:13:02;99203.03;;;22.61;57.28
78573;BME280;67862;0.000;0.000;2024-02-28T06:15:28;99203.31;;;22.60;57.56
78573;BME280;67862;0.000;0.000;2024-02-28T06:17:55;99215.38;;;22.59;57.41
78573;BME280;67862;0.000;0.000;2024-02-28T06:20:21;99224.66;;;22.57;57.40
78573;BME280;67862;0.000;0.000;2024-02-28T06:22:46;99210.47;;;22.55;57.37
78573;BME280;67862;0.000;0.000;2024-02-28T06:25:11;99214.34;;;22.54;57.51
78573;BME280;67862;0.000;0.000;2024-02-28T06:27:44;99204.00;;;22.51;57.66
78573;BME280;67862;0.000;0.000;2024-02-28T06:30:10;99207.84;;;22.50;57.50
78573;BME280;67862;0.000;0.000;2024-02-28T06:32:35;99214.44;;;22.49;57.52
78573;BME280;67862;0.000;0.000;2024-02-28T06:35:01;99206.50;;;22.48;57.22
78573;BME280;67862;0.000;0.000;2024-02-28T06:37:26;99211.97;;;22.48;57.42
78573;BME280;67862;0.000;0.000;2024-02-28T06:39:53;99213.38;;;22.45;57.38
78573;BME280;67862;0.000;0.000;2024-02-28T06:42:19;99209.81;;;22.45;57.35
78573;BME280;67862;0.000;0.000;2024-02-28T06:44:44;99209.00;;;22.44;57.42
78573;BME280;67862;0.000;0.000;2024-02-28T06:47:09;99212.88;;;22.43;57.52
78573;BME280;67862;0.000;0.000;2024-02-28T06:49:35;99208.50;;;22.42;57.49
78573;BME280;67862;0.000;0.000;2024-02-28T06:52:00;99218.63;;;22.42;57.18
78573;BME280;67862;0.000;0.000;2024-02-28T06:54:27;99217.00;;;22.41;57.03
78573;BME280;67862;0.000;0.000;2024-02-28T06:56:52;99220.56;;;22.41;57.47
78573;BME280;67862;0.000;0.000;2024-02-28T06:59:17;99222.78;;;22.39;57.26
78573;BME280;67862;0.000;0.000;2024-02-28T07:01:43;99213.72;;;22.39;57.14
78573;BME280;67862;0.000;0.000;2024-02-28T07:04:08;99231.00;;;22.39;56.94
78573;BME280;67862;0.000;0.000;2024-02-28T07:06:34;99225.53;;;22.39;57.64
78573;BME280;67862;0.000;0.000;2024-02-28T07:08:59;99222.78;;;22.39;57.65
78573;BME280;67862;0.000;0.000;2024-02-28T07:11:24;99225.53;;;22.39;57.88
78573;BME280;67862;0.000;0.000;2024-02-28T07:13:50;99232.88;;;22.39;57.71
78573;BME280;67862;0.000;0.000;2024-02-28T07:16:15;99232.88;;;22.39;57.77
78573;BME280;67862;0.000;0.000;2024-02-28T07:18:41;99239.19;;;22.39;57.26
78573;BME280;67862;0.000;0.000;2024-02-28T07:21:06;99237.28;;;22.40;57.60
78573;BME280;67862;0.000;0.000;2024-02-28T07:23:32;99247.41;;;22.39;57.36
78573;BME280;67862;0.000;0.000;2024-02-28T07:25:57;99248.47;;;22.38;57.13
78573;BME280;67862;0.000;0.000;2024-02-28T07:28:22;99251.22;;;22.38;57.09
78573;BME280;67862;0.000;0.000;2024-02-28T07:30:48;99253.94;;;22.38;57.38
78573;BME280;67862;0.000;0.000;2024-02-28T07:33:13;99261.06;;;22.39;57.36
78573;BME280;67862;0.000;0.000;2024-02-28T07:35:51;99255.59;;;22.39;57.06
78573;BME280;67862;0.000;0.000;2024-02-28T07:38:17;99254.75;;;22.39;57.30
78573;BME280;67862;0.000;0.000;2024-02-28T07:40:45;99261.88;;;22.40;57.42
78573;BME280;67862;0.000;0.000;2024-02-28T07:43:10;99268.16;;;22.40;57.31
78573;BME280;67862;0.000;0.000;2024-02-28T07:45:36;99264.63;;;22.40;57.33
78573;BME280;67862;0.000;0.000;2024-02-28T07:48:01;99264.31;;;22.41;56.95
78573;BME280;67862;0.000;0.000;2024-02-28T07:50:26;99272.53;;;22.41;57.10
78573;BME280;67862;0.000;0.000;2024-02-28T07:52:53;99285.41;;;22.41;57.30
78573;BME280;67862;0.000;0.000;2024-02-28T07:55:20;99275.25;;;22.41;57.13
78573;BME280;67862;0.000;0.000;2024-02-28T07:57:47;99274.97;;;22.43;56.97
78573;BME280;67862;0.000;0.000;2024-02-28T08:00:12;99280.44;;;22.43;56.88
78573;BME280;67862;0.000;0.000;2024-02-28T08:02:38;99281.25;;;22.43;56.89
78573;BME280;67862;0.000;0.000;2024-02-28T08:05:04;99277.69;;;22.43;57.15
78573;BME280;67862;0.000;0.000;2024-02-28T08:07:35;99275.78;;;22.43;56.74
78573;BME280;67862;0.000;0.000;2024-02-28T08:10:01;99270.28;;;21.77;43.14
78573;BME280;67862;0.000;0.000;2024-02-28T08:12:26;99291.69;;;21.40;46.22
78573;BME280;67862;0.000;0.000;2024-02-28T08:14:51;99295.81;;;21.38;47.67
78573;BME280;67862;0.000;0.000;2024-02-28T08:17:16;99288.63;;;21.13;43.06
78573;BME280;67862;0.000;0.000;2024-02-28T08:19:42;99284.31;;;21.07;47.81
78573;BME280;67862;0.000;0.000;2024-02-28T08:22:07;99297.13;;;20.72;45.34
78573;BME280;67862;0.000;0.000;2024-02-28T08:24:32;99294.91;;;20.79;47.44
78573;BME280;67862;0.000;0.000;2024-02-28T08:26:58;99294.44;;;20.62;45.17
78573;BME280;67862;0.000;0.000;2024-02-28T08:29:23;99290.69;;;20.53;46.49
78573;BME280;67862;0.000;0.000;2024-02-28T08:31:48;99304.03;;;20.54;45.87
78573;BME280;67862;0.000;0.000;2024-02-28T08:34:14;99292.72;;;20.27;45.19
78573;BME280;67862;0.000;0.000;2024-02-28T08:36:39;99297.09;;;20.23;46.97
78573;BME280;67862;0.000;0.000;2024-02-28T08:39:04;99301.25;;;20.05;42.54
78573;BME280;67862;0.000;0.000;2024-02-28T08:41:31;99291.44;;;20.04;46.06
78573;BME280;67862;0.000;0.000;2024-02-28T08:43:56;99293.91;;;20.00;46.46
78573;BME280;67862;0.000;0.000;2024-02-28T08:46:22;99297.13;;;20.13;47.36
78573;BME280;67862;0.000;0.000;2024-02-28T08:48:47;99293.09;;;19.95;43.90
78573;BME280;67862;0.000;0.000;2024-02-28T08:51:12;99298.38;;;19.66;43.84
78573;BME280;67862;0.000;0.000;2024-02-28T08:53:38;99292.94;;;19.56;43.14
78573;BME280;67862;0.000;0.000;2024-02-28T08:56:03;99295.09;;;19.49;45.27
78573;BME280;67862;0.000;0.000;2024-02-28T08:58:29;99290.75;;;19.53;44.51
78573;BME280;67862;0.000;0.000;2024-02-28T09:00:54;99291.56;;;19.48;45.12
78573;BME280;67862;0.000;0.000;2024-02-28T09:03:20;99295.94;;;19.24;44.75
78573;BME280;67862;0.000;0.000;2024-02-28T09:05:46;99296.19;;;19.37;46.64
78573;BME280;67862;0.000;0.000;2024-02-28T09:08:12;99305.47;;;19.16;45.64
78573;BME280;67862;0.000;0.000;2024-02-28T09:10:38;99310.63;;;19.43;51.87
78573;BME280;67862;0.000;0.000;2024-02-28T09:13:03;99307.38;;;19.56;52.35
78573;BME280;67862;0.000;0.000;2024-02-28T09:15:28;99316.06;;;19.63;52.36
78573;BME280;67862;0.000;0.000;2024-02-28T09:17:54;99312.25;;;19.69;52.86
78573;BME280;67862;0.000;0.000;2024-02-28T09:20:19;99300.78;;;19.78;52.76
78573;BME280;67862;0.000;0.000;2024-02-28T09:22:44;99311.13;;;19.86;53.07
78573;BME280;67862;0.000;0.000;2024-02-28T09:25:10;99312.19;;;19.95;53.40
78573;BME280;67862;0.000;0.000;2024-02-28T09:27:35;99306.97;;;20.04;53.60
78573;BME280;67862;0.000;0.000;2024-02-28T09:30:01;99316.50;;;20.11;53.59
78573;BME280;67862;0.000;0.000;2024-02-28T09:32:27;99315.09;;;20.19;53.67
78573;BME280;67862;0.000;0.000;2024-02-28T09:34:52;99311.81;;;20.27;53.38
78573;BME280;67862;0.000;0.000;2024-02-28T09:37:18;99315.84;;;20.35;53.48
78573;BME280;67862;0.000;0.000;2024-02-28T09:39:45;99309.28;;;20.41;53.68
78573;BME280;67862;0.000;0.000;2024-02-28T09:42:10;99312.25;;;20.49;53.55
78573;BME280;67862;0.000;0.000;2024-02-28T09:44:36;99310.31;;;20.55;53.62
78573;BME280;67862;0.000;0.000;2024-02-28T09:47:01;99310.00;;;20.62;53.59
78573;BME280;67862;0.000;0.000;2024-02-28T09:49:27;99306.97;;;20.68;53.61
78573;BME280;67862;0.000;0.000;2024-02-28T09:51:53;99305.56;;;20.76;53.60
78573;BME280;67862;0.000;0.000;2024-02-28T09:54:19;99309.06;;;20.81;53.41
78573;BME280;67862;0.000;0.000;2024-02-28T09:56:44;99300.84;;;20.86;53.43
78573;BME280;67862;0.000;0.000;2024-02-28T09:59:10;99303.53;;;20.92;53.77
78573;BME280;67862;0.000;0.000;2024-02-28T10:01:37;99301.59;;;20.97;53.33
78573;BME280;67862;0.000;0.000;2024-02-28T10:04:06;99300.44;;;21.03;53.37
78573;BME280;67862;0.000;0.000;2024-02-28T10:06:32;99295.25;;;21.07;53.50
78573;BME280;67862;0.000;0.000;2024-02-28T10:08:58;99298.72;;;21.12;53.33
78573;BME280;67862;0.000;0.000;2024-02-28T10:11:23;99311.53;;;21.17;53.31
78573;BME280;67862;0.000;0.000;2024-02-28T10:13:49;99309.84;;;21.21;53.57
78573;BME280;67862;0.000;0.000;2024-02-28T10:16:15;99311.47;;;21.27;53.35
78573;BME280;67862;0.000;0.000;2024-02-28T10:18:43;99317.97;;;21.31;53.25
78573;BME280;67862;0.000;0.000;2024-02-28T10:21:09;99320.97;;;21.35;53.31
78573;BME280;67862;0.000;0.000;2024-02-28T10:23:35;99319.28;;;21.39;53.48
78573;BME280;67862;0.000;0.000;2024-02-28T10:26:01;99325.00;;;21.42;53.17
78573;BME280;67862;0.000;0.000;2024-02-28T10:28:28;99324.72;;;21.44;53.54
78573;BME280;67862;0.000;0.000;2024-02-28T10:30:54;99322.22;;;21.48;53.42
78573;BME280;67862;0.000;0.000;2024-02-28T10:33:19;99323.25;;;21.52;53.49
78573;BME280;67862;0.000;0.000;2024-02-28T10:35:44;99323.81;;;21.54;53.33
78573;BME280;67862;0.000;0.000;2024-02-28T10:38:10;99324.84;;;21.58;53.75
78573;BME280;67862;0.000;0.000;2024-02-28T10:40:35;99327.00;;;21.61;53.31
78573;BME280;67862;0.000;0.000;2024-02-28T10:43:02;99322.59;;;21.65;53.20
78573;BME280;67862;0.000;0.000;2024-02-28T10:45:29;99319.59;;;21.66;53.25
78573;BME280;67862;0.000;0.000;2024-02-28T10:47:56;99317.63;;;21.72;53.17
78573;BME280;67862;0.000;0.000;2024-02-28T10:50:21;99317.03;;;21.75;53.51
78573;BME280;67862;0.000;0.000;2024-02-28T10:52:47;99321.91;;;21.78;52.95
78573;BME280;67862;0.000;0.000;2024-02-28T10:55:17;99318.63;;;21.81;53.16
78573;BME280;67862;0.000;0.000;2024-02-28T10:57:45;99313.69;;;21.83;53.54
78573;BME280;67862;0.000;0.000;2024-02-28T11:00:13;99321.56;;;21.85;53.20
78573;BME280;67862;0.000;0.000;2024-02-28T11:02:41;99319.38;;;21.87;53.23
78573;BME280;67862;0.000;0.000;2024-02-28T11:05:08;99313.59;;;21.88;53.56
78573;BME280;67862;0.000;0.000;2024-02-28T11:07:34;99304.28;;;21.89;53.64
78573;BME280;67862;0.000;0.000;2024-02-28T11:10:04;99324.78;;;21.92;54.25
78573;BME280;67862;0.000;0.000;2024-02-28T11:12:30;99327.22;;;21.93;54.23
78573;BME280;67862;0.000;0.000;2024-02-28T11:14:56;99324.19;;;21.95;54.18
78573;BME280;67862;0.000;0.000;2024-02-28T11:17:25;99324.72;;;21.97;53.81
78573;BME280;67862;0.000;0.000;2024-02-28T11:19:51;99324.41;;;21.98;53.54
78573;BME280;67862;0.000;0.000;2024-02-28T11:22:18;99313.50;;;21.98;53.38
78573;BME280;67862;0.000;0.000;2024-02-28T11:24:43;99323.31;;;21.99;53.14
78573;BME280;67862;0.000;0.000;2024-02-28T11:27:11;99330.44;;;22.00;53.30
78573;BME280;67862;0.000;0.000;2024-02-28T11:29:38;99320.03;;;22.03;53.23
78573;BME280;67862;0.000;0.000;2024-02-28T11:32:03;99330.66;;;22.04;52.87
78573;BME280;67862;0.000;0.000;2024-02-28T11:34:29;99317.50;;;22.06;53.23
78573;BME280;67862;0.000;0.000;2024-02-28T11:36:55;99313.41;;;22.09;52.79
78573;BME280;67862;0.000;0.000;2024-02-28T11:39:21;99316.94;;;22.09;52.88
78573;BME280;67862;0.000;0.000;2024-02-28T11:41:49;99317.50;;;22.11;52.98
78573;BME280;67862;0.000;0.000;2024-02-28T11:44:15;99323.47;;;22.13;53.07
78573;BME280;67862;0.000;0.000;2024-02-28T11:46:47;99321.56;;;22.14;53.21
78573;BME280;67862;0.000;0.000;2024-02-28T11:49:13;99318.22;;;22.17;53.02
78573;BME280;67862;0.000;0.000;2024-02-28T11:51:42;99323.13;;;22.20;53.30
78573;BME280;67862;0.000;0.000;2024-02-28T11:54:08;99314.34;;;22.23;53.05
78573;BME280;67862;0.000;0.000;2024-02-28T11:56:34;99314.84;;;22.25;53.22
78573;BME280;67862;0.000;0.000;2024-02-28T11:58:59;99309.91;;;22.27;53.34
78573;BME280;67862;0.000;0.000;2024-02-28T12:01:43;99313.16;;;22.29;53.23
78573;BME280;67862;0.000;0.000;2024-02-28T12:04:17;99302.22;;;22.29;53.06
78573;BME280;67862;0.000;0.000;2024-02-28T12:06:43;99308.22;;;22.31;53.01
78573;BME280;67862;0.000;0.000;2024-02-28T12:09:11;99309.84;;;22.32;52.94
78573;BME280;67862;0.000;0.000;2024-02-28T12:11:39;99298.59;;;22.34;53.42
78573;BME280;67862;0.000;0.000;2024-02-28T12:14:06;99310.06;;;22.36;53.00
78573;BME280;67862;0.000;0.000;2024-02-28T12:16:34;99307.84;;;22.38;53.19
78573;BME280;67862;0.000;0.000;2024-02-28T12:18:59;99304.00;;;22.39;53.09
78573;BME280;67862;0.000;0.000;2024-02-28T12:21:25;99307.28;;;22.41;53.27
78573;BME280;67862;0.000;0.000;2024-02-28T12:23:50;99310.53;;;22.43;53.07
78573;BME280;67862;0.000;0.000;2024-02-28T12:26:18;99306.69;;;22.44;52.97
78573;BME280;67862;0.000;0.000;2024-02-28T12:28:44;99308.31;;;22.45;52.98
78573;BME280;67862;0.000;0.000;2024-02-28T12:31:09;99302.84;;;22.45;53.04
78573;BME280;67862;0.000;0.000;2024-02-28T12:33:36;99313.47;;;22.46;53.12
78573;BME280;67862;0.000;0.000;2024-02-28T12:36:02;99308.00;;;22.46;53.33
78573;BME280;67862;0.000;0.000;2024-02-28T12:38:29;99296.75;;;22.48;53.25
78573;BME280;67862;0.000;0.000;2024-02-28T12:40:55;99303.03;;;22.48;53.37
78573;BME280;67862;0.000;0.000;2024-02-28T12:43:20;99300.31;;;22.48;53.36
78573;BME280;67862;0.000;0.000;2024-02-28T12:45:45;99301.66;;;22.51;53.00
78573;BME280;67862;0.000;0.000;2024-02-28T12:48:11;99297.81;;;22.52;53.21
78573;BME280;67862;0.000;0.000;2024-02-28T12:50:36;99297.53;;;22.53;53.00
78573;BME280;67862;0.000;0.000;2024-02-28T12:53:02;99293.97;;;22.53;53.26
78573;BME280;67862;0.000;0.000;2024-02-28T12:55:28;99285.75;;;22.53;53.15
78573;BME280;67862;0.000;0.000;2024-02-28T12:57:53;99293.06;;;22.57;53.06
78573;BME280;67862;0.000;0.000;2024-02-28T13:00:18;99292.81;;;22.59;53.30
78573;BME280;67862;0.000;0.000;2024-02-28T13:02:44;99285.41;;;22.60;53.06
78573;BME280;67862;0.000;0.000;2024-02-28T13:05:11;99288.13;;;22.60;53.20